sensor_id;sensor_type;location;lat;lon;timestamp;P1;durP1;ratioP1;P2;durP2;ratioP2
1779;SDS011;10019;46.670;14.260;2023-03-13T00:01:38;9.60;;;6.43;;
1779;SDS011;10019;46.670;14.260;2023-03-13T00:04:11;6.57;;;4.93;;
1779;SDS011;10019;46.670;14.260;2023-03-13T00:06:43;11.30;;;4.90;;
1779;SDS011;10019;46.670;14.260;2023-03-13T00:09:15;8.93;;;5.30;;
1779;SDS011;10019;46.670;14.260;2023-03-13T00:11:47;11.97;;;6.50;;
1779;SDS011;10019;46.670;14.260;2023-03-13T00:14:18;7.40;;;6.03;;
1779;SDS011;10019;46.670;14.260;2023-03-13T00:16:51;7.50;;;5.83;;
1779;SDS011;10019;46.670;14.260;2023-03-13T00:19:23;9.47;;;5.80;;
1779;SDS011;10019;46.670;14.260;2023-03-13T00:21:55;5.53;;;4.43;;
1779;SDS011;10019;46.670;14.260;2023-03-13T00:24:26;12.83;;;5.83;;
1779;SDS011;10019;46.670;14.260;2023-03-13T00:26:58;6.73;;;5.27;;
1779;SDS011;10019;46.670;14.260;2023-03-13T00:29:32;9.83;;;5.23;;
1779;SDS011;10019;46.670;14.260;2023-03-13T00:32:06;8.57;;;5.17;;
1779;SDS011;10019;46.670;14.260;2023-03-13T00:34:38;5.50;;;5.00;;
1779;SDS011;10019;46.670;14.260;2023-03-13T00:37:09;7.27;;;5.20;;
1779;SDS011;10019;46.670;14.260;2023-03-13T00:39:41;6.40;;;4.77;;
1779;SDS011;10019;46.670;14.260;2023-03-13T00:42:14;8.80;;;4.67;;
1779;SDS011;10019;46.670;14.260;2023-03-13T00:44:45;5.47;;;4.67;;
1779;SDS011;10019;46.670;14.260;2023-03-13T00:47:18;6.33;;;4.83;;
1779;SDS011;10019;46.670;14.260;2023-03-13T00:49:50;8.40;;;5.17;;
1779;SDS011;10019;46.670;14.260;2023-03-13T00:52:22;6.23;;;4.90;;
1779;SDS011;10019;46.670;14.260;2023-03-13T00:54:54;6.13;;;5.20;;
1779;SDS011;10019;46.670;14.260;2023-03-13T00:57:25;7.40;;;5.00;;
1779;SDS011;10019;46.670;14.260;2023-03-13T00:59:57;9.83;;;4.83;;
1779;SDS011;10019;46.670;14.260;2023-03-13T01:02:30;5.67;;;5.07;;
1779;SDS011;10019;46.670;14.260;2023-03-13T01:05:02;7.20;;;4.50;;
1779;SDS011;10019;46.670;14.260;2023-03-13T01:07:33;11.00;;;5.57;;
1779;SDS011;10019;46.670;14.260;2023-03-13T01:10:05;6.57;;;4.53;;
1779;SDS011;10019;46.670;14.260;2023-03-13T01:12:38;8.13;;;5.20;;
1779;SDS011;10019;46.670;14.260;2023-03-13T01:15:10;7.60;;;5.40;;
1779;SDS011;10019;46.670;14.260;2023-03-13T01:17:43;11.67;;;4.97;;
1779;SDS011;10019;46.670;14.260;2023-03-13T01:20:15;7.80;;;5.10;;
1779;SDS011;10019;46.670;14.260;2023-03-13T01:22:47;6.50;;;5.10;;
1779;SDS011;10019;46.670;14.260;2023-03-13T01:25:19;9.73;;;6.30;;
1779;SDS011;10019;46.670;14.260;2023-03-13T01:27:50;8.20;;;5.97;;
1779;SDS011;10019;46.670;14.260;2023-03-13T01:30:22;7.67;;;4.90;;
1779;SDS011;10019;46.670;14.260;2023-03-13T01:32:55;5.70;;;5.10;;
1779;SDS011;10019;46.670;14.260;2023-03-13T01:35:27;7.20;;;5.03;;
1779;SDS011;10019;46.670;14.260;2023-03-13T01:37:58;5.50;;;5.00;;
1779;SDS011;10019;46.670;14.260;2023-03-13T01:40:30;7.03;;;5.03;;
1779;SDS011;10019;46.670;14.260;2023-03-13T01:43:11;8.20;;;5.23;;
1779;SDS011;10019;46.670;14.260;2023-03-13T01:45:53;5.73;;;4.47;;
1779;SDS011;10019;46.670;14.260;2023-03-13T01:48:32;7.10;;;4.10;;
1779;SDS011;10019;46.670;14.260;2023-03-13T01:51:07;5.17;;;4.40;;
1779;SDS011;10019;46.670;14.260;2023-03-13T01:53:42;5.30;;;4.40;;
1779;SDS011;10019;46.670;14.260;2023-03-13T01:56:16;7.40;;;5.10;;
1779;SDS011;10019;46.670;14.260;2023-03-13T01:58:50;4.40;;;4.00;;
1779;SDS011;10019;46.670;14.260;2023-03-13T02:01:22;7.50;;;4.73;;
1779;SDS011;10019;46.670;14.260;2023-03-13T02:03:56;4.87;;;4.17;;
1779;SDS011;10019;46.670;14.260;2023-03-13T02:06:28;7.27;;;4.30;;
1779;SDS011;10019;46.670;14.260;2023-03-13T02:09:02;4.90;;;4.03;;
1779;SDS011;10019;46.670;14.260;2023-03-13T02:11:40;4.30;;;3.90;;
1779;SDS011;10019;46.670;14.260;2023-03-13T02:14:17;5.40;;;3.67;;
1779;SDS011;10019;46.670;14.260;2023-03-13T02:16:51;5.10;;;4.50;;
1779;SDS011;10019;46.670;14.260;2023-03-13T02:19:26;7.70;;;4.67;;
1779;SDS011;10019;46.670;14.260;2023-03-13T02:22:00;5.40;;;4.10;;
1779;SDS011;10019;46.670;14.260;2023-03-13T02:24:36;4.90;;;3.60;;
1779;SDS011;10019;46.670;14.260;2023-03-13T02:27:11;5.10;;;3.90;;
1779;SDS011;10019;46.670;14.260;2023-03-13T02:29:43;5.30;;;3.83;;
1779;SDS011;10019;46.670;14.260;2023-03-13T02:32:14;6.20;;;3.87;;
1779;SDS011;10019;46.670;14.260;2023-03-13T02:34:46;7.73;;;3.87;;
1779;SDS011;10019;46.670;14.260;2023-03-13T02:37:20;4.70;;;3.70;;
1779;SDS011;10019;46.670;14.260;2023-03-13T02:39:52;4.80;;;3.73;;
1779;SDS011;10019;46.670;14.260;2023-03-13T02:42:25;4.20;;;3.80;;
1779;SDS011;10019;46.670;14.260;2023-03-13T02:44:58;5.83;;;4.30;;
1779;SDS011;10019;46.670;14.260;2023-03-13T02:47:30;4.20;;;3.20;;
1779;SDS011;10019;46.670;14.260;2023-03-13T02:50:02;3.80;;;3.50;;
1779;SDS011;10019;46.670;14.260;2023-03-13T02:52:34;4.40;;;4.00;;
1779;SDS011;10019;46.670;14.260;2023-03-13T02:55:08;6.17;;;3.67;;
1779;SDS011;10019;46.670;14.260;2023-03-13T02:57:44;6.13;;;4.00;;
1779;SDS011;10019;46.670;14.260;2023-03-13T03:00:16;5.70;;;3.40;;
1779;SDS011;10019;46.670;14.260;2023-03-13T03:02:48;4.20;;;3.80;;
1779;SDS011;10019;46.670;14.260;2023-03-13T03:05:20;6.77;;;4.87;;
1779;SDS011;10019;46.670;14.260;2023-03-13T03:07:51;6.53;;;4.40;;
1779;SDS011;10019;46.670;14.260;2023-03-13T03:10:23;4.33;;;3.80;;
1779;SDS011;10019;46.670;14.260;2023-03-13T03:12:56;6.37;;;4.70;;
1779;SDS011;10019;46.670;14.260;2023-03-13T03:15:28;7.03;;;4.80;;
1779;SDS011;10019;46.670;14.260;2023-03-13T03:17:59;5.27;;;4.63;;
1779;SDS011;10019;46.670;14.260;2023-03-13T03:20:31;5.23;;;4.70;;
1779;SDS011;10019;46.670;14.260;2023-03-13T03:23:03;5.90;;;3.83;;
1779;SDS011;10019;46.670;14.260;2023-03-13T03:25:34;6.20;;;4.90;;
1779;SDS011;10019;46.670;14.260;2023-03-13T03:28:07;6.13;;;4.30;;
1779;SDS011;10019;46.670;14.260;2023-03-13T03:30:39;6.53;;;4.33;;
1779;SDS011;10019;46.670;14.260;2023-03-13T03:33:11;4.20;;;3.80;;
1779;SDS011;10019;46.670;14.260;2023-03-13T03:35:43;5.90;;;4.50;;
1779;SDS011;10019;46.670;14.260;2023-03-13T03:38:15;5.20;;;4.50;;
1779;SDS011;10019;46.670;14.260;2023-03-13T03:40:46;5.83;;;4.47;;
1779;SDS011;10019;46.670;14.260;2023-03-13T03:43:19;6.03;;;4.43;;
1779;SDS011;10019;46.670;14.260;2023-03-13T03:45:51;4.73;;;4.03;;
1779;SDS011;10019;46.670;14.260;2023-03-13T03:48:23;4.83;;;4.10;;
1779;SDS011;10019;46.670;14.260;2023-03-13T03:50:54;5.67;;;4.73;;
1779;SDS011;10019;46.670;14.260;2023-03-13T03:53:26;6.33;;;4.47;;
1779;SDS011;10019;46.670;14.260;2023-03-13T03:56:01;6.00;;;3.63;;
1779;SDS011;10019;46.670;14.260;2023-03-13T03:58:35;6.10;;;4.47;;
1779;SDS011;10019;46.670;14.260;2023-03-13T04:01:07;6.07;;;3.87;;
1779;SDS011;10019;46.670;14.260;2023-03-13T04:03:38;5.20;;;4.10;;
1779;SDS011;10019;46.670;14.260;2023-03-13T04:06:10;5.57;;;4.97;;
1779;SDS011;10019;46.670;14.260;2023-03-13T04:08:41;4.47;;;3.67;;
1779;SDS011;10019;46.670;14.260;2023-03-13T04:11:13;5.07;;;3.80;;
1779;SDS011;10019;46.670;14.260;2023-03-13T04:13:46;5.10;;;4.00;;
1779;SDS011;10019;46.670;14.260;2023-03-13T04:16:18;6.63;;;4.67;;
1779;SDS011;10019;46.670;14.260;2023-03-13T04:18:49;6.67;;;4.67;;
1779;SDS011;10019;46.670;14.260;2023-03-13T04:21:21;8.53;;;4.77;;
1779;SDS011;10019;46.670;14.260;2023-03-13T04:23:53;5.80;;;4.70;;
1779;SDS011;10019;46.670;14.260;2023-03-13T04:26:24;5.90;;;3.50;;
1779;SDS011;10019;46.670;14.260;2023-03-13T04:28:57;4.37;;;3.90;;
1779;SDS011;10019;46.670;14.260;2023-03-13T04:31:29;5.03;;;4.50;;
1779;SDS011;10019;46.670;14.260;2023-03-13T04:34:00;7.27;;;4.43;;
1779;SDS011;10019;46.670;14.260;2023-03-13T04:36:32;5.00;;;4.57;;
1779;SDS011;10019;46.670;14.260;2023-03-13T04:39:04;6.60;;;4.10;;
1779;SDS011;10019;46.670;14.260;2023-03-13T04:41:35;4.40;;;4.00;;
1779;SDS011;10019;46.670;14.260;2023-03-13T04:44:08;5.13;;;4.57;;
1779;SDS011;10019;46.670;14.260;2023-03-13T04:46:40;5.40;;;4.43;;
1779;SDS011;10019;46.670;14.260;2023-03-13T04:49:12;5.40;;;4.40;;
1779;SDS011;10019;46.670;14.260;2023-03-13T04:51:44;6.27;;;4.37;;
1779;SDS011;10019;46.670;14.260;2023-03-13T04:54:16;5.73;;;4.70;;
1779;SDS011;10019;46.670;14.260;2023-03-13T04:56:48;8.37;;;4.53;;
1779;SDS011;10019;46.670;14.260;2023-03-13T04:59:21;4.37;;;3.70;;
1779;SDS011;10019;46.670;14.260;2023-03-13T05:01:52;4.67;;;4.10;;
1779;SDS011;10019;46.670;14.260;2023-03-13T05:04:24;5.07;;;4.23;;
1779;SDS011;10019;46.670;14.260;2023-03-13T05:06:56;7.53;;;4.77;;
1779;SDS011;10019;46.670;14.260;2023-03-13T05:09:27;5.73;;;4.13;;
1779;SDS011;10019;46.670;14.260;2023-03-13T05:11:59;9.83;;;4.27;;
1779;SDS011;10019;46.670;14.260;2023-03-13T05:14:32;5.00;;;3.60;;
1779;SDS011;10019;46.670;14.260;2023-03-13T05:17:04;6.43;;;4.40;;
1779;SDS011;10019;46.670;14.260;2023-03-13T05:19:35;8.33;;;4.60;;
1779;SDS011;10019;46.670;14.260;2023-03-13T05:22:07;6.07;;;3.83;;
1779;SDS011;10019;46.670;14.260;2023-03-13T05:24:39;5.07;;;4.50;;
1779;SDS011;10019;46.670;14.260;2023-03-13T05:27:10;5.67;;;4.70;;
1779;SDS011;10019;46.670;14.260;2023-03-13T05:29:43;5.20;;;4.70;;
1779;SDS011;10019;46.670;14.260;2023-03-13T05:32:15;5.70;;;4.47;;
1779;SDS011;10019;46.670;14.260;2023-03-13T05:34:46;5.80;;;5.20;;
1779;SDS011;10019;46.670;14.260;2023-03-13T05:37:18;6.80;;;5.00;;
1779;SDS011;10019;46.670;14.260;2023-03-13T05:39:50;5.73;;;5.17;;
1779;SDS011;10019;46.670;14.260;2023-03-13T05:42:21;6.40;;;4.57;;
1779;SDS011;10019;46.670;14.260;2023-03-13T05:44:55;5.97;;;5.30;;
1779;SDS011;10019;46.670;14.260;2023-03-13T05:47:27;7.27;;;5.13;;
1779;SDS011;10019;46.670;14.260;2023-03-13T05:49:58;6.53;;;4.90;;
1779;SDS011;10019;46.670;14.260;2023-03-13T05:52:30;7.53;;;4.50;;
1779;SDS011;10019;46.670;14.260;2023-03-13T05:55:02;4.63;;;4.07;;
1779;SDS011;10019;46.670;14.260;2023-03-13T05:57:34;5.87;;;4.67;;
1779;SDS011;10019;46.670;14.260;2023-03-13T06:00:07;6.00;;;5.20;;
1779;SDS011;10019;46.670;14.260;2023-03-13T06:02:40;6.53;;;4.97;;
1779;SDS011;10019;46.670;14.260;2023-03-13T06:05:12;7.10;;;4.90;;
1779;SDS011;10019;46.670;14.260;2023-03-13T06:07:44;9.73;;;4.90;;
1779;SDS011;10019;46.670;14.260;2023-03-13T06:10:16;7.57;;;4.20;;
1779;SDS011;10019;46.670;14.260;2023-03-13T06:12:51;5.77;;;4.90;;
1779;SDS011;10019;46.670;14.260;2023-03-13T06:15:24;4.77;;;4.13;;
1779;SDS011;10019;46.670;14.260;2023-03-13T06:17:56;4.70;;;4.20;;
1779;SDS011;10019;46.670;14.260;2023-03-13T06:20:28;6.40;;;4.63;;
1779;SDS011;10019;46.670;14.260;2023-03-13T06:22:59;10.20;;;6.83;;
1779;SDS011;10019;46.670;14.260;2023-03-13T06:25:33;5.00;;;4.50;;
1779;SDS011;10019;46.670;14.260;2023-03-13T06:28:05;7.50;;;4.60;;
1779;SDS011;10019;46.670;14.260;2023-03-13T06:30:38;5.67;;;4.90;;
1779;SDS011;10019;46.670;14.260;2023-03-13T06:33:09;6.10;;;4.53;;
1779;SDS011;10019;46.670;14.260;2023-03-13T06:35:41;5.10;;;4.40;;
1779;SDS011;10019;46.670;14.260;2023-03-13T06:38:13;7.20;;;5.07;;
1779;SDS011;10019;46.670;14.260;2023-03-13T06:40:45;7.37;;;5.07;;
1779;SDS011;10019;46.670;14.260;2023-03-13T06:43:17;5.73;;;4.20;;
1779;SDS011;10019;46.670;14.260;2023-03-13T06:45:50;4.73;;;4.33;;
1779;SDS011;10019;46.670;14.260;2023-03-13T06:48:21;6.67;;;4.97;;
1779;SDS011;10019;46.670;14.260;2023-03-13T06:50:53;9.57;;;5.17;;
1779;SDS011;10019;46.670;14.260;2023-03-13T06:53:26;10.80;;;5.20;;
1779;SDS011;10019;46.670;14.260;2023-03-13T06:55:59;8.40;;;6.20;;
1779;SDS011;10019;46.670;14.260;2023-03-13T06:58:31;10.80;;;5.60;;
1779;SDS011;10019;46.670;14.260;2023-03-13T07:01:06;5.50;;;4.80;;
1779;SDS011;10019;46.670;14.260;2023-03-13T07:03:38;8.73;;;5.23;;
1779;SDS011;10019;46.670;14.260;2023-03-13T07:06:11;6.70;;;4.23;;
1779;SDS011;10019;46.670;14.260;2023-03-13T07:08:43;7.50;;;5.27;;
1779;SDS011;10019;46.670;14.260;2023-03-13T07:11:15;5.90;;;4.73;;
1779;SDS011;10019;46.670;14.260;2023-03-13T07:13:46;5.57;;;4.97;;
1779;SDS011;10019;46.670;14.260;2023-03-13T07:16:19;6.43;;;5.50;;
1779;SDS011;10019;46.670;14.260;2023-03-13T07:18:51;5.50;;;5.00;;
1779;SDS011;10019;46.670;14.260;2023-03-13T07:21:23;7.10;;;5.70;;
1779;SDS011;10019;46.670;14.260;2023-03-13T07:23:54;7.70;;;6.87;;
1779;SDS011;10019;46.670;14.260;2023-03-13T07:26:26;7.67;;;5.97;;
1779;SDS011;10019;46.670;14.260;2023-03-13T07:28:58;9.17;;;6.77;;
1779;SDS011;10019;46.670;14.260;2023-03-13T07:31:31;13.67;;;6.97;;
1779;SDS011;10019;46.670;14.260;2023-03-13T07:34:03;9.43;;;6.23;;
1779;SDS011;10019;46.670;14.260;2023-03-13T07:36:34;5.50;;;5.00;;
1779;SDS011;10019;46.670;14.260;2023-03-13T07:39:06;6.73;;;5.27;;
1779;SDS011;10019;46.670;14.260;2023-03-13T07:41:38;12.07;;;5.10;;
1779;SDS011;10019;46.670;14.260;2023-03-13T07:44:09;5.70;;;4.57;;
1779;SDS011;10019;46.670;14.260;2023-03-13T07:46:43;8.20;;;5.23;;
1779;SDS011;10019;46.670;14.260;2023-03-13T07:49:15;7.67;;;5.13;;
1779;SDS011;10019;46.670;14.260;2023-03-13T07:51:46;4.50;;;4.10;;
1779;SDS011;10019;46.670;14.260;2023-03-13T07:54:20;8.27;;;6.17;;
1779;SDS011;10019;46.670;14.260;2023-03-13T07:56:51;8.37;;;6.30;;
1779;SDS011;10019;46.670;14.260;2023-03-13T07:59:23;11.17;;;6.70;;
1779;SDS011;10019;46.670;14.260;2023-03-13T08:01:57;9.30;;;7.30;;
1779;SDS011;10019;46.670;14.260;2023-03-13T08:04:28;8.53;;;6.27;;
1779;SDS011;10019;46.670;14.260;2023-03-13T08:07:00;7.47;;;5.73;;
1779;SDS011;10019;46.670;14.260;2023-03-13T08:09:32;11.77;;;6.10;;
1779;SDS011;10019;46.670;14.260;2023-03-13T08:12:03;5.90;;;5.10;;
1779;SDS011;10019;46.670;14.260;2023-03-13T08:14:35;11.23;;;5.87;;
1779;SDS011;10019;46.670;14.260;2023-03-13T08:17:08;10.50;;;5.67;;
1779;SDS011;10019;46.670;14.260;2023-03-13T08:19:40;8.43;;;4.60;;
1779;SDS011;10019;46.670;14.260;2023-03-13T08:22:12;10.13;;;4.70;;
1779;SDS011;10019;46.670;14.260;2023-03-13T08:24:44;4.80;;;4.40;;
1779;SDS011;10019;46.670;14.260;2023-03-13T08:27:15;5.37;;;4.53;;
1779;SDS011;10019;46.670;14.260;2023-03-13T08:29:47;5.77;;;4.37;;
1779;SDS011;10019;46.670;14.260;2023-03-13T08:32:20;6.83;;;3.83;;
1779;SDS011;10019;46.670;14.260;2023-03-13T08:34:52;6.97;;;5.50;;
1779;SDS011;10019;46.670;14.260;2023-03-13T08:37:26;6.13;;;5.53;;
1779;SDS011;10019;46.670;14.260;2023-03-13T08:39:57;8.90;;;6.00;;
1779;SDS011;10019;46.670;14.260;2023-03-13T08:42:29;5.50;;;4.50;;
1779;SDS011;10019;46.670;14.260;2023-03-13T08:45:00;11.93;;;5.03;;
1779;SDS011;10019;46.670;14.260;2023-03-13T08:47:34;7.30;;;5.40;;
1779;SDS011;10019;46.670;14.260;2023-03-13T08:50:06;8.50;;;5.70;;
1779;SDS011;10019;46.670;14.260;2023-03-13T08:52:38;10.60;;;5.67;;
1779;SDS011;10019;46.670;14.260;2023-03-13T08:55:09;7.00;;;5.23;;
1779;SDS011;10019;46.670;14.260;2023-03-13T08:57:41;8.43;;;5.13;;
1779;SDS011;10019;46.670;14.260;2023-03-13T09:00:13;5.70;;;4.90;;
1779;SDS011;10019;46.670;14.260;2023-03-13T09:02:49;5.37;;;4.73;;
1779;SDS011;10019;46.670;14.260;2023-03-13T09:05:20;5.50;;;4.00;;
1779;SDS011;10019;46.670;14.260;2023-03-13T09:07:52;6.00;;;4.53;;
1779;SDS011;10019;46.670;14.260;2023-03-13T09:10:24;6.47;;;4.10;;
1779;SDS011;10019;46.670;14.260;2023-03-13T09:12:56;5.10;;;4.50;;
1779;SDS011;10019;46.670;14.260;2023-03-13T09:15:27;8.70;;;4.33;;
1779;SDS011;10019;46.670;14.260;2023-03-13T09:18:00;4.93;;;4.03;;
1779;SDS011;10019;46.670;14.260;2023-03-13T09:20:32;10.93;;;4.20;;
1779;SDS011;10019;46.670;14.260;2023-03-13T09:23:04;5.23;;;4.60;;
1779;SDS011;10019;46.670;14.260;2023-03-13T09:25:36;4.90;;;4.40;;
1779;SDS011;10019;46.670;14.260;2023-03-13T09:28:08;5.80;;;4.53;;
1779;SDS011;10019;46.670;14.260;2023-03-13T09:30:40;4.83;;;4.23;;
1779;SDS011;10019;46.670;14.260;2023-03-13T09:33:13;7.00;;;4.33;;
1779;SDS011;10019;46.670;14.260;2023-03-13T09:35:44;4.23;;;3.83;;
1779;SDS011;10019;46.670;14.260;2023-03-13T09:38:20;4.43;;;3.80;;
1779;SDS011;10019;46.670;14.260;2023-03-13T09:40:52;10.20;;;4.00;;
1779;SDS011;10019;46.670;14.260;2023-03-13T09:43:35;5.80;;;4.00;;
1779;SDS011;10019;46.670;14.260;2023-03-13T09:46:12;5.13;;;4.30;;
1779;SDS011;10019;46.670;14.260;2023-03-13T09:48:48;6.57;;;4.40;;
1779;SDS011;10019;46.670;14.260;2023-03-13T09:51:23;6.03;;;4.40;;
1779;SDS011;10019;46.670;14.260;2023-03-13T09:53:57;5.77;;;3.90;;
1779;SDS011;10019;46.670;14.260;2023-03-13T09:56:30;7.00;;;4.10;;
1779;SDS011;10019;46.670;14.260;2023-03-13T09:59:05;5.00;;;4.50;;
1779;SDS011;10019;46.670;14.260;2023-03-13T10:01:45;5.50;;;4.40;;
1779;SDS011;10019;46.670;14.260;2023-03-13T10:04:23;7.50;;;4.20;;
1779;SDS011;10019;46.670;14.260;2023-03-13T10:06:59;4.37;;;3.70;;
1779;SDS011;10019;46.670;14.260;2023-03-13T10:09:31;5.10;;;4.30;;
1779;SDS011;10019;46.670;14.260;2023-03-13T10:12:05;5.23;;;4.20;;
1779;SDS011;10019;46.670;14.260;2023-03-13T10:14:42;5.67;;;3.97;;
1779;SDS011;10019;46.670;14.260;2023-03-13T10:17:19;4.67;;;4.17;;
1779;SDS011;10019;46.670;14.260;2023-03-13T10:19:57;4.53;;;3.83;;
1779;SDS011;10019;46.670;14.260;2023-03-13T10:22:31;5.07;;;3.97;;
1779;SDS011;10019;46.670;14.260;2023-03-13T10:25:03;4.37;;;3.90;;
1779;SDS011;10019;46.670;14.260;2023-03-13T10:27:42;4.90;;;4.10;;
1779;SDS011;10019;46.670;14.260;2023-03-13T10:30:18;6.40;;;3.40;;
1779;SDS011;10019;46.670;14.260;2023-03-13T10:32:56;4.00;;;3.67;;
1779;SDS011;10019;46.670;14.260;2023-03-13T10:35:34;6.10;;;3.80;;
1779;SDS011;10019;46.670;14.260;2023-03-13T10:38:08;4.40;;;3.87;;
1779;SDS011;10019;46.670;14.260;2023-03-13T10:40:41;5.37;;;3.70;;
1779;SDS011;10019;46.670;14.260;2023-03-13T10:43:16;4.80;;;4.30;;
1779;SDS011;10019;46.670;14.260;2023-03-13T10:45:49;4.43;;;3.80;;
1779;SDS011;10019;46.670;14.260;2023-03-13T10:48:22;5.30;;;4.10;;
1779;SDS011;10019;46.670;14.260;2023-03-13T10:50:56;4.63;;;4.13;;
1779;SDS011;10019;46.670;14.260;2023-03-13T10:53:31;4.20;;;3.80;;
1779;SDS011;10019;46.670;14.260;2023-03-13T10:56:08;4.97;;;3.90;;
1779;SDS011;10019;46.670;14.260;2023-03-13T10:58:41;6.60;;;4.20;;
1779;SDS011;10019;46.670;14.260;2023-03-13T11:01:15;5.47;;;4.37;;
1779;SDS011;10019;46.670;14.260;2023-03-13T11:03:49;6.67;;;4.30;;
1779;SDS011;10019;46.670;14.260;2023-03-13T11:06:25;4.20;;;3.80;;
1779;SDS011;10019;46.670;14.260;2023-03-13T11:08:59;4.40;;;3.80;;
1779;SDS011;10019;46.670;14.260;2023-03-13T11:11:42;4.70;;;4.17;;
1779;SDS011;10019;46.670;14.260;2023-03-13T11:14:16;5.70;;;3.77;;
1779;SDS011;10019;46.670;14.260;2023-03-13T11:16:53;4.27;;;3.87;;
1779;SDS011;10019;46.670;14.260;2023-03-13T11:19:27;6.83;;;4.17;;
1779;SDS011;10019;46.670;14.260;2023-03-13T11:22:04;4.77;;;4.27;;
1779;SDS011;10019;46.670;14.260;2023-03-13T11:24:45;4.70;;;4.27;;
1779;SDS011;10019;46.670;14.260;2023-03-13T11:27:22;5.40;;;3.83;;
1779;SDS011;10019;46.670;14.260;2023-03-13T11:30:00;5.27;;;3.93;;
1779;SDS011;10019;46.670;14.260;2023-03-13T11:32:40;4.17;;;3.67;;
1779;SDS011;10019;46.670;14.260;2023-03-13T11:35:18;6.73;;;3.93;;
1779;SDS011;10019;46.670;14.260;2023-03-13T11:37:54;4.37;;;3.93;;
1779;SDS011;10019;46.670;14.260;2023-03-13T11:40:27;6.20;;;4.60;;
1779;SDS011;10019;46.670;14.260;2023-03-13T11:43:09;4.90;;;4.40;;
1779;SDS011;10019;46.670;14.260;2023-03-13T11:45:49;4.40;;;3.97;;
1779;SDS011;10019;46.670;14.260;2023-03-13T11:51:31;5.23;;;3.70;;
1779;SDS011;10019;46.670;14.260;2023-03-13T11:54:21;5.23;;;3.90;;
1779;SDS011;10019;46.670;14.260;2023-03-13T11:57:04;7.33;;;4.20;;
1779;SDS011;10019;46.670;14.260;2023-03-13T11:59:43;4.73;;;4.10;;
1779;SDS011;10019;46.670;14.260;2023-03-13T12:02:20;4.60;;;4.20;;
1779;SDS011;10019;46.670;14.260;2023-03-13T12:04:55;5.20;;;4.37;;
1779;SDS011;10019;46.670;14.260;2023-03-13T12:07:30;5.43;;;3.93;;
1779;SDS011;10019;46.670;14.260;2023-03-13T12:10:08;6.87;;;3.80;;
1779;SDS011;10019;46.670;14.260;2023-03-13T12:12:42;6.40;;;4.43;;
1779;SDS011;10019;46.670;14.260;2023-03-13T12:15:18;5.67;;;4.57;;
1779;SDS011;10019;46.670;14.260;2023-03-13T12:17:53;3.77;;;3.47;;
1779;SDS011;10019;46.670;14.260;2023-03-13T12:20:32;4.50;;;4.10;;
1779;SDS011;10019;46.670;14.260;2023-03-13T12:23:17;8.97;;;5.00;;
1779;SDS011;10019;46.670;14.260;2023-03-13T12:25:52;6.53;;;4.30;;
1779;SDS011;10019;46.670;14.260;2023-03-13T12:28:27;5.33;;;4.20;;
1779;SDS011;10019;46.670;14.260;2023-03-13T12:33:55;7.30;;;4.80;;
1779;SDS011;10019;46.670;14.260;2023-03-13T12:36:31;6.43;;;4.20;;
1779;SDS011;10019;46.670;14.260;2023-03-13T12:39:09;4.30;;;3.90;;
1779;SDS011;10019;46.670;14.260;2023-03-13T12:41:53;5.30;;;4.40;;
1779;SDS011;10019;46.670;14.260;2023-03-13T12:44:36;5.93;;;4.90;;
1779;SDS011;10019;46.670;14.260;2023-03-13T12:47:13;4.40;;;4.00;;
1779;SDS011;10019;46.670;14.260;2023-03-13T12:52:53;5.40;;;4.23;;
1779;SDS011;10019;46.670;14.260;2023-03-13T12:55:32;4.47;;;4.03;;
1779;SDS011;10019;46.670;14.260;2023-03-13T12:58:27;4.37;;;3.97;;
1779;SDS011;10019;46.670;14.260;2023-03-13T13:01:01;4.23;;;3.83;;
1779;SDS011;10019;46.670;14.260;2023-03-13T13:03:34;3.70;;;3.40;;
1779;SDS011;10019;46.670;14.260;2023-03-13T13:06:08;4.97;;;3.60;;
1779;SDS011;10019;46.670;14.260;2023-03-13T13:08:42;7.13;;;3.80;;
1779;SDS011;10019;46.670;14.260;2023-03-13T13:20:28;6.40;;;4.40;;
1779;SDS011;10019;46.670;14.260;2023-03-13T13:32:27;6.13;;;4.90;;
1779;SDS011;10019;46.670;14.260;2023-03-13T13:35:03;6.23;;;4.73;;
1779;SDS011;10019;46.670;14.260;2023-03-13T13:37:36;6.43;;;4.40;;
1779;SDS011;10019;46.670;14.260;2023-03-13T13:40:16;6.47;;;4.37;;
1779;SDS011;10019;46.670;14.260;2023-03-13T13:42:51;9.60;;;3.80;;
1779;SDS011;10019;46.670;14.260;2023-03-13T13:45:28;5.30;;;4.20;;
1779;SDS011;10019;46.670;14.260;2023-03-13T13:48:13;5.33;;;3.93;;
1779;SDS011;10019;46.670;14.260;2023-03-13T13:53:53;7.07;;;3.73;;
1779;SDS011;10019;46.670;14.260;2023-03-13T13:59:24;8.70;;;3.60;;
1779;SDS011;10019;46.670;14.260;2023-03-13T14:02:11;4.93;;;4.53;;
1779;SDS011;10019;46.670;14.260;2023-03-13T14:04:46;4.23;;;3.83;;
1779;SDS011;10019;46.670;14.260;2023-03-13T14:07:24;5.77;;;4.20;;
1779;SDS011;10019;46.670;14.260;2023-03-13T14:10:05;5.03;;;3.80;;
1779;SDS011;10019;46.670;14.260;2023-03-13T14:12:39;6.93;;;4.13;;
1779;SDS011;10019;46.670;14.260;2023-03-13T14:15:12;4.67;;;4.17;;
1779;SDS011;10019;46.670;14.260;2023-03-13T14:17:47;3.70;;;3.40;;
1779;SDS011;10019;46.670;14.260;2023-03-13T14:20:27;4.40;;;3.83;;
1779;SDS011;10019;46.670;14.260;2023-03-13T14:23:02;6.13;;;4.03;;
1779;SDS011;10019;46.670;14.260;2023-03-13T14:25:42;5.00;;;3.97;;
1779;SDS011;10019;46.670;14.260;2023-03-13T14:28:19;6.33;;;4.10;;
1779;SDS011;10019;46.670;14.260;2023-03-13T14:30:52;7.73;;;4.13;;
1779;SDS011;10019;46.670;14.260;2023-03-13T14:33:25;5.70;;;3.87;;
1779;SDS011;10019;46.670;14.260;2023-03-13T14:35:57;5.37;;;4.43;;
1779;SDS011;10019;46.670;14.260;2023-03-13T14:38:30;5.73;;;3.87;;
1779;SDS011;10019;46.670;14.260;2023-03-13T14:41:03;4.83;;;3.67;;
1779;SDS011;10019;46.670;14.260;2023-03-13T14:43:35;5.20;;;3.70;;
1779;SDS011;10019;46.670;14.260;2023-03-13T14:46:15;3.70;;;3.30;;
1779;SDS011;10019;46.670;14.260;2023-03-13T14:51:26;5.50;;;3.77;;
1779;SDS011;10019;46.670;14.260;2023-03-13T14:54:00;8.17;;;3.50;;
1779;SDS011;10019;46.670;14.260;2023-03-13T14:56:33;4.50;;;3.50;;
1779;SDS011;10019;46.670;14.260;2023-03-13T14:59:14;5.07;;;3.47;;
1779;SDS011;10019;46.670;14.260;2023-03-13T15:01:56;6.20;;;3.67;;
1779;SDS011;10019;46.670;14.260;2023-03-13T15:04:49;4.80;;;3.43;;
1779;SDS011;10019;46.670;14.260;2023-03-13T15:07:21;4.83;;;4.00;;
1779;SDS011;10019;46.670;14.260;2023-03-13T15:09:55;7.80;;;3.60;;
1779;SDS011;10019;46.670;14.260;2023-03-13T15:12:26;6.47;;;3.33;;
1779;SDS011;10019;46.670;14.260;2023-03-13T15:14:59;4.20;;;3.77;;
1779;SDS011;10019;46.670;14.260;2023-03-13T15:17:31;4.60;;;3.80;;
1779;SDS011;10019;46.670;14.260;2023-03-13T15:20:03;4.50;;;3.73;;
1779;SDS011;10019;46.670;14.260;2023-03-13T15:22:37;5.20;;;3.20;;
1779;SDS011;10019;46.670;14.260;2023-03-13T15:25:15;5.20;;;3.27;;
1779;SDS011;10019;46.670;14.260;2023-03-13T15:27:48;4.10;;;3.30;;
1779;SDS011;10019;46.670;14.260;2023-03-13T15:30:20;4.23;;;3.30;;
1779;SDS011;10019;46.670;14.260;2023-03-13T15:32:53;4.07;;;3.10;;
1779;SDS011;10019;46.670;14.260;2023-03-13T15:35:25;5.20;;;4.63;;
1779;SDS011;10019;46.670;14.260;2023-03-13T15:37:58;4.90;;;3.20;;
1779;SDS011;10019;46.670;14.260;2023-03-13T15:40:32;3.40;;;2.90;;
1779;SDS011;10019;46.670;14.260;2023-03-13T15:43:03;5.63;;;2.90;;
1779;SDS011;10019;46.670;14.260;2023-03-13T15:45:36;4.23;;;3.33;;
1779;SDS011;10019;46.670;14.260;2023-03-13T15:48:13;4.50;;;3.50;;
1779;SDS011;10019;46.670;14.260;2023-03-13T15:50:48;5.40;;;3.10;;
1779;SDS011;10019;46.670;14.260;2023-03-13T15:53:21;3.10;;;2.70;;
1779;SDS011;10019;46.670;14.260;2023-03-13T15:55:55;3.50;;;2.87;;
1779;SDS011;10019;46.670;14.260;2023-03-13T15:58:28;4.30;;;2.87;;
1779;SDS011;10019;46.670;14.260;2023-03-13T16:01:00;8.03;;;3.50;;
1779;SDS011;10019;46.670;14.260;2023-03-13T16:03:32;4.40;;;3.10;;